Terminal Aerodrome Forecast
Issued by NWS Wilmington, OH

Current Version | Previous Version | Text Only | Print | Product List | Glossary Off
Versions: 1 2 3 4 5 6 7 8 9 10 11 12 13 14 15 16 17 18 19 20 21 22 23 24 25 26 27 28 29

000
FTUS41 KILN 220500
TAFCVG
TAF
KCVG 220531Z 2206/2312 03007KT P6SM OVC040
     FM220800 36006KT P6SM BKN022
      TEMPO 2208/2211 SCT022
     FM221800 35008KT P6SM SCT030
     FM230000 01004KT P6SM SKC=

USA.gov is the U.S. government's official web portal to all federal, state and local government web resources and services.